CHC weather

Christchurch International Airport
Christchurch, Canterbury Region, New Zealand

Public forecast

Using degrees Celsius for public forecast. Weather courtesy of forecast.io.

Current aviation weather report (METAR) for Christchurch International Airport

Retrieved 2020/04/04 11:00 UTC (26 minutes ago):

NZCH 041100Z AUTO 06017KT 9999 OVC018/// 14/11 Q1026 NOSIG

Aviation forecast (TAF) for Christchurch International Airport

Retrieved 2020/04/04 06:06 UTC (5 hours ago):

TAF NZCH 040500Z 0406/0506 06020G30KT 9999 BKN020 TEMPO 0406/0415 BKN012 BECMG 0408/0410 04012KT TEMPO 0415/0420 BKN008